sensor_id;sensor_type;location;lat;lon;timestamp;P1;durP1;ratioP1;P2;durP2;ratioP2
9413;SDS011;4746;35.664;139.738;2023-03-01T00:01:43;4.70;;;2.77;;
9413;SDS011;4746;35.664;139.738;2023-03-01T00:04:11;4.13;;;3.07;;
9413;SDS011;4746;35.664;139.738;2023-03-01T00:06:38;4.63;;;3.03;;
9413;SDS011;4746;35.664;139.738;2023-03-01T00:09:08;4.57;;;2.80;;
9413;SDS011;4746;35.664;139.738;2023-03-01T00:11:35;5.07;;;3.27;;
9413;SDS011;4746;35.664;139.738;2023-03-01T00:14:03;5.57;;;3.53;;
9413;SDS011;4746;35.664;139.738;2023-03-01T00:16:36;4.13;;;2.87;;
9413;SDS011;4746;35.664;139.738;2023-03-01T00:19:07;3.43;;;3.00;;
9413;SDS011;4746;35.664;139.738;2023-03-01T00:21:41;6.53;;;3.30;;
9413;SDS011;4746;35.664;139.738;2023-03-01T00:24:09;3.80;;;3.27;;
9413;SDS011;4746;35.664;139.738;2023-03-01T00:26:37;4.03;;;3.43;;
9413;SDS011;4746;35.664;139.738;2023-03-01T00:29:04;6.37;;;3.17;;
9413;SDS011;4746;35.664;139.738;2023-03-01T00:31:32;6.13;;;3.53;;
9413;SDS011;4746;35.664;139.738;2023-03-01T00:34:01;4.50;;;3.10;;
9413;SDS011;4746;35.664;139.738;2023-03-01T00:36:32;5.93;;;3.70;;
9413;SDS011;4746;35.664;139.738;2023-03-01T00:39:04;3.50;;;3.20;;
9413;SDS011;4746;35.664;139.738;2023-03-01T00:41:37;6.87;;;3.20;;
9413;SDS011;4746;35.664;139.738;2023-03-01T00:44:05;3.83;;;3.20;;
9413;SDS011;4746;35.664;139.738;2023-03-01T00:46:33;4.90;;;3.43;;
9413;SDS011;4746;35.664;139.738;2023-03-01T00:49:00;5.23;;;3.00;;
9413;SDS011;4746;35.664;139.738;2023-03-01T00:51:30;4.63;;;3.33;;
9413;SDS011;4746;35.664;139.738;2023-03-01T00:53:58;3.07;;;2.87;;
9413;SDS011;4746;35.664;139.738;2023-03-01T00:56:28;4.90;;;3.37;;
9413;SDS011;4746;35.664;139.738;2023-03-01T00:58:56;5.23;;;3.13;;
9413;SDS011;4746;35.664;139.738;2023-03-01T01:01:25;3.77;;;3.10;;
9413;SDS011;4746;35.664;139.738;2023-03-01T01:04:00;4.00;;;3.03;;
9413;SDS011;4746;35.664;139.738;2023-03-01T01:06:35;5.50;;;3.40;;
9413;SDS011;4746;35.664;139.738;2023-03-01T01:09:08;6.57;;;3.23;;
9413;SDS011;4746;35.664;139.738;2023-03-01T01:11:43;4.57;;;3.57;;
9413;SDS011;4746;35.664;139.738;2023-03-01T01:14:16;3.90;;;3.50;;
9413;SDS011;4746;35.664;139.738;2023-03-01T01:16:45;3.93;;;3.33;;
9413;SDS011;4746;35.664;139.738;2023-03-01T01:19:13;5.53;;;4.00;;
9413;SDS011;4746;35.664;139.738;2023-03-01T01:21:40;5.77;;;3.93;;
9413;SDS011;4746;35.664;139.738;2023-03-01T01:24:08;4.87;;;3.60;;
9413;SDS011;4746;35.664;139.738;2023-03-01T01:26:37;6.50;;;4.30;;
9413;SDS011;4746;35.664;139.738;2023-03-01T01:29:05;4.53;;;3.97;;
9413;SDS011;4746;35.664;139.738;2023-03-01T01:31:33;8.87;;;3.97;;
9413;SDS011;4746;35.664;139.738;2023-03-01T01:34:05;5.07;;;3.50;;
9413;SDS011;4746;35.664;139.738;2023-03-01T01:36:38;4.07;;;3.13;;
9413;SDS011;4746;35.664;139.738;2023-03-01T01:39:05;4.27;;;2.70;;
9413;SDS011;4746;35.664;139.738;2023-03-01T01:41:33;4.83;;;3.47;;
9413;SDS011;4746;35.664;139.738;2023-03-01T01:46:47;4.17;;;3.70;;
9413;SDS011;4746;35.664;139.738;2023-03-01T01:49:56;4.50;;;3.50;;
9413;SDS011;4746;35.664;139.738;2023-03-01T01:52:29;4.47;;;3.50;;
9413;SDS011;4746;35.664;139.738;2023-03-01T01:55:08;4.33;;;3.93;;
9413;SDS011;4746;35.664;139.738;2023-03-01T01:57:48;5.87;;;4.67;;
9413;SDS011;4746;35.664;139.738;2023-03-01T02:00:22;5.00;;;3.80;;
9413;SDS011;4746;35.664;139.738;2023-03-01T02:02:57;4.50;;;4.10;;
9413;SDS011;4746;35.664;139.738;2023-03-01T02:05:42;3.57;;;3.27;;
9413;SDS011;4746;35.664;139.738;2023-03-01T02:08:20;8.30;;;3.90;;
9413;SDS011;4746;35.664;139.738;2023-03-01T02:10:52;6.00;;;3.40;;
9413;SDS011;4746;35.664;139.738;2023-03-01T02:13:22;5.70;;;3.20;;
9413;SDS011;4746;35.664;139.738;2023-03-01T02:15:50;5.57;;;4.13;;
9413;SDS011;4746;35.664;139.738;2023-03-01T02:18:18;6.67;;;3.73;;
9413;SDS011;4746;35.664;139.738;2023-03-01T02:23:31;5.13;;;2.70;;
9413;SDS011;4746;35.664;139.738;2023-03-01T02:29:14;3.90;;;2.80;;
9413;SDS011;4746;35.664;139.738;2023-03-01T02:31:42;2.93;;;2.50;;
9413;SDS011;4746;35.664;139.738;2023-03-01T02:34:20;2.77;;;2.10;;
9413;SDS011;4746;35.664;139.738;2023-03-01T02:37:00;4.83;;;2.10;;
9413;SDS011;4746;35.664;139.738;2023-03-01T02:39:37;4.37;;;2.57;;
9413;SDS011;4746;35.664;139.738;2023-03-01T02:42:12;2.77;;;2.50;;
9413;SDS011;4746;35.664;139.738;2023-03-01T02:44:48;2.47;;;2.27;;
9413;SDS011;4746;35.664;139.738;2023-03-01T02:47:16;2.93;;;2.13;;
9413;SDS011;4746;35.664;139.738;2023-03-01T02:49:45;3.43;;;2.20;;
9413;SDS011;4746;35.664;139.738;2023-03-01T02:55:36;3.20;;;2.43;;
9413;SDS011;4746;35.664;139.738;2023-03-01T02:58:04;2.80;;;2.60;;
9413;SDS011;4746;35.664;139.738;2023-03-01T03:00:36;3.10;;;2.30;;
9413;SDS011;4746;35.664;139.738;2023-03-01T03:03:15;3.10;;;2.57;;
9413;SDS011;4746;35.664;139.738;2023-03-01T03:05:47;3.27;;;2.60;;
9413;SDS011;4746;35.664;139.738;2023-03-01T03:08:15;5.13;;;2.73;;
9413;SDS011;4746;35.664;139.738;2023-03-01T03:10:49;2.83;;;2.57;;
9413;SDS011;4746;35.664;139.738;2023-03-01T03:13:16;2.80;;;2.40;;
9413;SDS011;4746;35.664;139.738;2023-03-01T03:15:44;2.97;;;2.77;;
9413;SDS011;4746;35.664;139.738;2023-03-01T03:18:14;4.10;;;2.63;;
9413;SDS011;4746;35.664;139.738;2023-03-01T03:20:44;3.60;;;2.80;;
9413;SDS011;4746;35.664;139.738;2023-03-01T03:23:11;3.10;;;2.80;;
9413;SDS011;4746;35.664;139.738;2023-03-01T03:25:40;4.53;;;2.87;;
9413;SDS011;4746;35.664;139.738;2023-03-01T03:28:07;2.63;;;2.40;;
9413;SDS011;4746;35.664;139.738;2023-03-01T03:30:36;3.20;;;2.90;;
9413;SDS011;4746;35.664;139.738;2023-03-01T03:33:06;3.03;;;2.80;;
9413;SDS011;4746;35.664;139.738;2023-03-01T03:35:40;3.20;;;2.90;;
9413;SDS011;4746;35.664;139.738;2023-03-01T03:38:11;4.20;;;3.10;;
9413;SDS011;4746;35.664;139.738;2023-03-01T03:40:42;3.80;;;2.97;;
9413;SDS011;4746;35.664;139.738;2023-03-01T03:43:33;3.40;;;2.53;;
9413;SDS011;4746;35.664;139.738;2023-03-01T03:46:05;3.17;;;2.97;;
9413;SDS011;4746;35.664;139.738;2023-03-01T03:48:37;4.30;;;3.45;;
9413;SDS011;4746;35.664;139.738;2023-03-01T03:51:11;5.18;;;3.53;;
9413;SDS011;4746;35.664;139.738;2023-03-01T03:53:41;5.20;;;2.92;;
9413;SDS011;4746;35.664;139.738;2023-03-01T03:56:10;4.07;;;3.45;;
9413;SDS011;4746;35.664;139.738;2023-03-01T03:58:38;6.05;;;3.60;;
9413;SDS011;4746;35.664;139.738;2023-03-01T04:01:06;4.60;;;3.35;;
9413;SDS011;4746;35.664;139.738;2023-03-01T04:03:34;4.28;;;3.63;;
9413;SDS011;4746;35.664;139.738;2023-03-01T04:06:02;3.75;;;2.90;;
9413;SDS011;4746;35.664;139.738;2023-03-01T04:08:31;4.18;;;3.08;;
9413;SDS011;4746;35.664;139.738;2023-03-01T04:11:00;4.25;;;3.08;;
9413;SDS011;4746;35.664;139.738;2023-03-01T04:13:52;2.58;;;2.03;;
9413;SDS011;4746;35.664;139.738;2023-03-01T04:16:22;3.35;;;2.45;;
9413;SDS011;4746;35.664;139.738;2023-03-01T04:18:51;2.50;;;2.28;;
9413;SDS011;4746;35.664;139.738;2023-03-01T04:21:19;2.83;;;2.30;;
9413;SDS011;4746;35.664;139.738;2023-03-01T04:23:47;3.13;;;2.63;;
9413;SDS011;4746;35.664;139.738;2023-03-01T04:26:18;4.68;;;2.35;;
9413;SDS011;4746;35.664;139.738;2023-03-01T04:28:46;2.97;;;2.33;;
9413;SDS011;4746;35.664;139.738;2023-03-01T04:31:19;2.85;;;2.38;;
9413;SDS011;4746;35.664;139.738;2023-03-01T04:33:48;2.55;;;2.35;;
9413;SDS011;4746;35.664;139.738;2023-03-01T04:36:22;3.05;;;2.47;;
9413;SDS011;4746;35.664;139.738;2023-03-01T04:38:55;4.43;;;2.53;;
9413;SDS011;4746;35.664;139.738;2023-03-01T04:41:24;3.83;;;2.60;;
9413;SDS011;4746;35.664;139.738;2023-03-01T04:43:52;4.55;;;2.50;;
9413;SDS011;4746;35.664;139.738;2023-03-01T04:46:20;3.60;;;1.92;;
9413;SDS011;4746;35.664;139.738;2023-03-01T04:48:48;2.92;;;2.63;;
9413;SDS011;4746;35.664;139.738;2023-03-01T04:51:15;3.65;;;2.70;;
9413;SDS011;4746;35.664;139.738;2023-03-01T04:53:43;4.60;;;2.60;;
9413;SDS011;4746;35.664;139.738;2023-03-01T04:56:11;6.25;;;2.88;;
9413;SDS011;4746;35.664;139.738;2023-03-01T04:58:40;4.13;;;2.80;;
9413;SDS011;4746;35.664;139.738;2023-03-01T05:01:09;6.47;;;3.40;;
9413;SDS011;4746;35.664;139.738;2023-03-01T05:03:43;4.00;;;2.42;;
9413;SDS011;4746;35.664;139.738;2023-03-01T05:06:14;3.35;;;2.40;;
9413;SDS011;4746;35.664;139.738;2023-03-01T05:08:45;6.10;;;2.42;;
9413;SDS011;4746;35.664;139.738;2023-03-01T05:11:13;4.60;;;2.60;;
9413;SDS011;4746;35.664;139.738;2023-03-01T05:13:41;3.25;;;2.45;;
9413;SDS011;4746;35.664;139.738;2023-03-01T05:16:09;3.50;;;2.67;;
9413;SDS011;4746;35.664;139.738;2023-03-01T05:18:37;3.25;;;2.63;;
9413;SDS011;4746;35.664;139.738;2023-03-01T05:21:10;2.70;;;2.20;;
9413;SDS011;4746;35.664;139.738;2023-03-01T05:23:42;4.78;;;2.60;;
9413;SDS011;4746;35.664;139.738;2023-03-01T05:26:10;3.83;;;2.72;;
9413;SDS011;4746;35.664;139.738;2023-03-01T05:28:38;2.92;;;2.58;;
9413;SDS011;4746;35.664;139.738;2023-03-01T05:31:06;3.60;;;2.75;;
9413;SDS011;4746;35.664;139.738;2023-03-01T05:33:38;5.47;;;2.70;;
9413;SDS011;4746;35.664;139.738;2023-03-01T05:36:07;6.03;;;2.72;;
9413;SDS011;4746;35.664;139.738;2023-03-01T05:38:36;4.15;;;2.83;;
9413;SDS011;4746;35.664;139.738;2023-03-01T05:41:04;3.42;;;2.95;;
9413;SDS011;4746;35.664;139.738;2023-03-01T05:43:39;4.82;;;2.78;;
9413;SDS011;4746;35.664;139.738;2023-03-01T05:46:08;4.03;;;2.75;;
9413;SDS011;4746;35.664;139.738;2023-03-01T05:48:38;5.15;;;2.90;;
9413;SDS011;4746;35.664;139.738;2023-03-01T05:51:06;6.07;;;2.80;;
9413;SDS011;4746;35.664;139.738;2023-03-01T05:53:33;4.45;;;2.67;;
9413;SDS011;4746;35.664;139.738;2023-03-01T05:56:03;3.58;;;2.50;;
9413;SDS011;4746;35.664;139.738;2023-03-01T05:58:31;3.08;;;2.80;;
9413;SDS011;4746;35.664;139.738;2023-03-01T06:01:03;5.43;;;2.78;;
9413;SDS011;4746;35.664;139.738;2023-03-01T06:03:31;3.00;;;2.70;;
9413;SDS011;4746;35.664;139.738;2023-03-01T06:05:58;3.85;;;2.50;;
9413;SDS011;4746;35.664;139.738;2023-03-01T06:08:26;6.10;;;2.88;;
9413;SDS011;4746;35.664;139.738;2023-03-01T06:10:53;4.15;;;3.10;;
9413;SDS011;4746;35.664;139.738;2023-03-01T06:13:21;6.25;;;2.97;;
9413;SDS011;4746;35.664;139.738;2023-03-01T06:15:50;2.85;;;2.42;;
9413;SDS011;4746;35.664;139.738;2023-03-01T06:18:18;5.78;;;2.90;;
9413;SDS011;4746;35.664;139.738;2023-03-01T06:20:45;4.88;;;2.90;;
9413;SDS011;4746;35.664;139.738;2023-03-01T06:23:21;2.53;;;2.33;;
9413;SDS011;4746;35.664;139.738;2023-03-01T06:25:51;3.38;;;2.92;;
9413;SDS011;4746;35.664;139.738;2023-03-01T06:28:19;4.05;;;2.97;;
9413;SDS011;4746;35.664;139.738;2023-03-01T06:30:48;4.00;;;2.85;;
9413;SDS011;4746;35.664;139.738;2023-03-01T06:33:17;4.80;;;2.50;;
9413;SDS011;4746;35.664;139.738;2023-03-01T06:35:46;4.13;;;2.55;;
9413;SDS011;4746;35.664;139.738;2023-03-01T06:38:13;3.95;;;2.50;;
9413;SDS011;4746;35.664;139.738;2023-03-01T06:40:45;5.28;;;2.90;;
9413;SDS011;4746;35.664;139.738;2023-03-01T06:43:19;6.35;;;3.08;;
9413;SDS011;4746;35.664;139.738;2023-03-01T06:45:48;4.75;;;2.60;;
9413;SDS011;4746;35.664;139.738;2023-03-01T06:48:16;6.22;;;2.92;;
9413;SDS011;4746;35.664;139.738;2023-03-01T06:50:44;4.35;;;2.85;;
9413;SDS011;4746;35.664;139.738;2023-03-01T06:53:11;4.13;;;2.70;;
9413;SDS011;4746;35.664;139.738;2023-03-01T06:55:39;4.10;;;3.17;;
9413;SDS011;4746;35.664;139.738;2023-03-01T06:58:06;5.97;;;3.15;;
9413;SDS011;4746;35.664;139.738;2023-03-01T07:00:36;3.73;;;2.67;;
9413;SDS011;4746;35.664;139.738;2023-03-01T07:03:06;3.17;;;2.88;;
9413;SDS011;4746;35.664;139.738;2023-03-01T07:05:34;2.80;;;2.60;;
9413;SDS011;4746;35.664;139.738;2023-03-01T07:08:02;3.03;;;2.73;;
9413;SDS011;4746;35.664;139.738;2023-03-01T07:10:29;4.43;;;2.87;;
9413;SDS011;4746;35.664;139.738;2023-03-01T07:12:57;5.00;;;2.83;;
9413;SDS011;4746;35.664;139.738;2023-03-01T07:15:26;3.63;;;3.00;;
9413;SDS011;4746;35.664;139.738;2023-03-01T07:17:54;4.43;;;3.37;;
9413;SDS011;4746;35.664;139.738;2023-03-01T07:20:23;4.40;;;3.20;;
9413;SDS011;4746;35.664;139.738;2023-03-01T07:22:51;4.70;;;3.10;;
9413;SDS011;4746;35.664;139.738;2023-03-01T07:25:24;6.90;;;3.23;;
9413;SDS011;4746;35.664;139.738;2023-03-01T07:27:52;5.63;;;3.17;;
9413;SDS011;4746;35.664;139.738;2023-03-01T07:30:20;8.83;;;3.50;;
9413;SDS011;4746;35.664;139.738;2023-03-01T07:32:51;6.33;;;3.10;;
9413;SDS011;4746;35.664;139.738;2023-03-01T07:35:19;9.17;;;3.17;;
9413;SDS011;4746;35.664;139.738;2023-03-01T07:37:48;4.47;;;2.97;;
9413;SDS011;4746;35.664;139.738;2023-03-01T07:40:16;4.50;;;3.00;;
9413;SDS011;4746;35.664;139.738;2023-03-01T07:42:44;4.83;;;2.97;;
9413;SDS011;4746;35.664;139.738;2023-03-01T07:45:11;3.83;;;2.90;;
9413;SDS011;4746;35.664;139.738;2023-03-01T07:47:39;5.03;;;2.83;;
9413;SDS011;4746;35.664;139.738;2023-03-01T07:50:07;6.10;;;2.90;;
9413;SDS011;4746;35.664;139.738;2023-03-01T07:52:35;4.23;;;3.10;;
9413;SDS011;4746;35.664;139.738;2023-03-01T07:55:03;5.50;;;3.53;;
9413;SDS011;4746;35.664;139.738;2023-03-01T07:57:31;3.97;;;3.10;;
9413;SDS011;4746;35.664;139.738;2023-03-01T07:59:58;4.47;;;3.00;;
9413;SDS011;4746;35.664;139.738;2023-03-01T08:02:26;3.20;;;2.90;;
9413;SDS011;4746;35.664;139.738;2023-03-01T08:04:54;5.57;;;3.47;;
9413;SDS011;4746;35.664;139.738;2023-03-01T08:07:21;4.23;;;2.80;;
9413;SDS011;4746;35.664;139.738;2023-03-01T08:09:49;4.70;;;3.27;;
9413;SDS011;4746;35.664;139.738;2023-03-01T08:12:17;4.60;;;2.50;;
9413;SDS011;4746;35.664;139.738;2023-03-01T08:14:44;6.13;;;3.30;;
9413;SDS011;4746;35.664;139.738;2023-03-01T08:17:14;3.47;;;2.87;;
9413;SDS011;4746;35.664;139.738;2023-03-01T08:19:43;4.50;;;3.27;;
9413;SDS011;4746;35.664;139.738;2023-03-01T08:22:10;3.93;;;2.90;;
9413;SDS011;4746;35.664;139.738;2023-03-01T08:24:38;8.13;;;3.67;;
9413;SDS011;4746;35.664;139.738;2023-03-01T08:27:05;7.87;;;3.17;;
9413;SDS011;4746;35.664;139.738;2023-03-01T08:29:34;8.03;;;3.27;;
9413;SDS011;4746;35.664;139.738;2023-03-01T08:32:02;5.63;;;3.30;;
9413;SDS011;4746;35.664;139.738;2023-03-01T08:34:30;5.70;;;3.73;;
9413;SDS011;4746;35.664;139.738;2023-03-01T08:36:57;6.03;;;4.17;;
9413;SDS011;4746;35.664;139.738;2023-03-01T08:39:25;4.73;;;3.77;;
9413;SDS011;4746;35.664;139.738;2023-03-01T08:41:53;6.63;;;4.10;;
9413;SDS011;4746;35.664;139.738;2023-03-01T08:44:20;7.00;;;4.07;;
9413;SDS011;4746;35.664;139.738;2023-03-01T08:46:48;8.77;;;3.90;;
9413;SDS011;4746;35.664;139.738;2023-03-01T08:49:18;5.07;;;3.50;;
9413;SDS011;4746;35.664;139.738;2023-03-01T08:51:47;6.73;;;4.03;;
9413;SDS011;4746;35.664;139.738;2023-03-01T08:54:17;6.47;;;4.03;;
9413;SDS011;4746;35.664;139.738;2023-03-01T08:56:47;7.60;;;4.77;;
9413;SDS011;4746;35.664;139.738;2023-03-01T08:59:16;7.07;;;4.53;;
9413;SDS011;4746;35.664;139.738;2023-03-01T09:01:45;6.47;;;3.97;;
9413;SDS011;4746;35.664;139.738;2023-03-01T09:04:17;9.93;;;4.47;;
9413;SDS011;4746;35.664;139.738;2023-03-01T09:06:51;7.73;;;4.50;;
9413;SDS011;4746;35.664;139.738;2023-03-01T09:09:39;6.43;;;4.13;;
9413;SDS011;4746;35.664;139.738;2023-03-01T09:12:10;8.43;;;4.60;;
9413;SDS011;4746;35.664;139.738;2023-03-01T09:14:42;5.57;;;3.60;;
9413;SDS011;4746;35.664;139.738;2023-03-01T09:17:20;6.00;;;4.23;;
9413;SDS011;4746;35.664;139.738;2023-03-01T09:19:48;7.77;;;4.40;;
9413;SDS011;4746;35.664;139.738;2023-03-01T09:22:16;6.73;;;3.53;;
9413;SDS011;4746;35.664;139.738;2023-03-01T09:24:47;6.90;;;4.10;;
9413;SDS011;4746;35.664;139.738;2023-03-01T09:27:17;5.30;;;3.80;;
9413;SDS011;4746;35.664;139.738;2023-03-01T09:29:46;5.00;;;4.00;;
9413;SDS011;4746;35.664;139.738;2023-03-01T09:32:16;4.77;;;4.27;;
9413;SDS011;4746;35.664;139.738;2023-03-01T09:34:44;8.53;;;3.87;;
9413;SDS011;4746;35.664;139.738;2023-03-01T09:37:31;5.37;;;3.93;;
9413;SDS011;4746;35.664;139.738;2023-03-01T09:40:00;6.50;;;4.20;;
9413;SDS011;4746;35.664;139.738;2023-03-01T09:42:32;6.03;;;4.57;;
9413;SDS011;4746;35.664;139.738;2023-03-01T09:45:05;6.53;;;3.77;;
9413;SDS011;4746;35.664;139.738;2023-03-01T09:47:52;10.23;;;4.33;;
9413;SDS011;4746;35.664;139.738;2023-03-01T09:50:21;4.17;;;3.77;;
9413;SDS011;4746;35.664;139.738;2023-03-01T09:53:07;5.47;;;4.60;;
9413;SDS011;4746;35.664;139.738;2023-03-01T09:55:46;5.30;;;4.00;;
9413;SDS011;4746;35.664;139.738;2023-03-01T09:58:29;3.93;;;3.40;;
9413;SDS011;4746;35.664;139.738;2023-03-01T10:07:30;3.97;;;3.60;;
9413;SDS011;4746;35.664;139.738;2023-03-01T10:10:22;7.00;;;3.63;;
9413;SDS011;4746;35.664;139.738;2023-03-01T10:16:13;8.07;;;4.50;;
9413;SDS011;4746;35.664;139.738;2023-03-01T10:19:03;5.57;;;4.40;;
9413;SDS011;4746;35.664;139.738;2023-03-01T10:21:37;7.47;;;4.47;;
9413;SDS011;4746;35.664;139.738;2023-03-01T10:24:15;7.60;;;3.93;;
9413;SDS011;4746;35.664;139.738;2023-03-01T10:26:54;6.17;;;4.43;;
9413;SDS011;4746;35.664;139.738;2023-03-01T10:30:34;6.07;;;4.17;;
9413;SDS011;4746;35.664;139.738;2023-03-01T10:32:49;7.10;;;4.50;;
9413;SDS011;4746;35.664;139.738;2023-03-01T10:35:23;7.47;;;4.77;;
9413;SDS011;4746;35.664;139.738;2023-03-01T10:38:12;4.90;;;4.40;;
9413;SDS011;4746;35.664;139.738;2023-03-01T10:41:04;7.40;;;4.60;;
9413;SDS011;4746;35.664;139.738;2023-03-01T10:43:55;6.17;;;4.07;;
9413;SDS011;4746;35.664;139.738;2023-03-01T10:46:27;5.73;;;4.73;;
9413;SDS011;4746;35.664;139.738;2023-03-01T10:49:17;8.40;;;5.57;;
9413;SDS011;4746;35.664;139.738;2023-03-01T10:51:52;5.63;;;4.37;;
9413;SDS011;4746;35.664;139.738;2023-03-01T10:54:28;7.73;;;4.13;;
9413;SDS011;4746;35.664;139.738;2023-03-01T10:56:59;6.03;;;4.90;;
9413;SDS011;4746;35.664;139.738;2023-03-01T11:02:17;6.60;;;4.30;;
9413;SDS011;4746;35.664;139.738;2023-03-01T11:07:50;6.90;;;4.97;;
9413;SDS011;4746;35.664;139.738;2023-03-01T11:10:27;5.87;;;4.77;;
9413;SDS011;4746;35.664;139.738;2023-03-01T11:13:15;7.90;;;5.03;;
9413;SDS011;4746;35.664;139.738;2023-03-01T11:16:01;5.97;;;4.70;;
9413;SDS011;4746;35.664;139.738;2023-03-01T11:18:38;5.87;;;4.83;;
9413;SDS011;4746;35.664;139.738;2023-03-01T11:21:06;6.73;;;4.87;;
9413;SDS011;4746;35.664;139.738;2023-03-01T11:23:36;5.23;;;4.73;;
9413;SDS011;4746;35.664;139.738;2023-03-01T11:26:09;5.93;;;4.87;;
9413;SDS011;4746;35.664;139.738;2023-03-01T11:28:39;8.63;;;5.50;;
9413;SDS011;4746;35.664;139.738;2023-03-01T11:31:12;4.90;;;4.17;;
9413;SDS011;4746;35.664;139.738;2023-03-01T11:49:38;5.73;;;5.07;;
9413;SDS011;4746;35.664;139.738;2023-03-01T12:01:32;6.00;;;4.67;;
9413;SDS011;4746;35.664;139.738;2023-03-01T12:07:33;7.03;;;4.53;;
9413;SDS011;4746;35.664;139.738;2023-03-01T12:19:52;5.20;;;4.60;;
9413;SDS011;4746;35.664;139.738;2023-03-01T12:23:03;9.77;;;4.60;;
9413;SDS011;4746;35.664;139.738;2023-03-01T12:25:58;5.47;;;4.53;;
9413;SDS011;4746;35.664;139.738;2023-03-01T12:38:37;5.47;;;4.03;;
9413;SDS011;4746;35.664;139.738;2023-03-01T12:42:01;6.73;;;4.50;;
9413;SDS011;4746;35.664;139.738;2023-03-01T12:48:11;6.17;;;4.37;;
9413;SDS011;4746;35.664;139.738;2023-03-01T12:51:08;4.93;;;4.47;;
9413;SDS011;4746;35.664;139.738;2023-03-01T12:53:44;7.67;;;4.60;;
9413;SDS011;4746;35.664;139.738;2023-03-01T12:56:29;4.20;;;3.83;;
9413;SDS011;4746;35.664;139.738;2023-03-01T12:59:20;4.33;;;3.90;;
9413;SDS011;4746;35.664;139.738;2023-03-01T13:02:16;7.50;;;3.93;;
9413;SDS011;4746;35.664;139.738;2023-03-01T13:10:48;5.20;;;4.03;;
9413;SDS011;4746;35.664;139.738;2023-03-01T13:13:25;7.17;;;4.43;;
9413;SDS011;4746;35.664;139.738;2023-03-01T13:16:16;6.20;;;4.13;;
9413;SDS011;4746;35.664;139.738;2023-03-01T13:19:17;3.90;;;3.60;;
9413;SDS011;4746;35.664;139.738;2023-03-01T13:21:51;6.37;;;3.87;;
9413;SDS011;4746;35.664;139.738;2023-03-01T13:27:41;4.80;;;3.63;;
9413;SDS011;4746;35.664;139.738;2023-03-01T13:29:55;6.90;;;4.07;;
9413;SDS011;4746;35.664;139.738;2023-03-01T13:32:35;3.67;;;3.10;;
9413;SDS011;4746;35.664;139.738;2023-03-01T13:37:46;6.83;;;3.80;;
9413;SDS011;4746;35.664;139.738;2023-03-01T13:42:54;5.17;;;3.73;;
9413;SDS011;4746;35.664;139.738;2023-03-01T13:45:39;3.63;;;3.33;;
9413;SDS011;4746;35.664;139.738;2023-03-01T13:48:14;3.03;;;2.83;;
9413;SDS011;4746;35.664;139.738;2023-03-01T13:50:48;2.73;;;2.57;;
9413;SDS011;4746;35.664;139.738;2023-03-01T13:53:29;3.97;;;2.67;;
9413;SDS011;4746;35.664;139.738;2023-03-01T13:56:12;5.03;;;2.63;;
9413;SDS011;4746;35.664;139.738;2023-03-01T14:01:29;4.90;;;2.53;;
9413;SDS011;4746;35.664;139.738;2023-03-01T14:03:59;3.87;;;2.60;;
9413;SDS011;4746;35.664;139.738;2023-03-01T14:06:32;3.67;;;3.30;;
9413;SDS011;4746;35.664;139.738;2023-03-01T14:12:02;2.37;;;2.17;;
9413;SDS011;4746;35.664;139.738;2023-03-01T14:21:15;5.07;;;3.30;;
9413;SDS011;4746;35.664;139.738;2023-03-01T14:23:47;3.87;;;3.00;;
9413;SDS011;4746;35.664;139.738;2023-03-01T14:26:29;6.73;;;3.23;;
9413;SDS011;4746;35.664;139.738;2023-03-01T14:29:02;5.33;;;3.07;;
9413;SDS011;4746;35.664;139.738;2023-03-01T14:32:12;3.17;;;2.80;;
9413;SDS011;4746;35.664;139.738;2023-03-01T14:34:51;4.67;;;2.40;;
9413;SDS011;4746;35.664;139.738;2023-03-01T14:37:29;4.23;;;2.80;;
9413;SDS011;4746;35.664;139.738;2023-03-01T14:40:20;2.80;;;2.17;;
9413;SDS011;4746;35.664;139.738;2023-03-01T14:43:01;4.93;;;2.90;;
9413;SDS011;4746;35.664;139.738;2023-03-01T14:45:38;4.23;;;2.40;;
9413;SDS011;4746;35.664;139.738;2023-03-01T14:48:15;4.23;;;2.70;;
9413;SDS011;4746;35.664;139.738;2023-03-01T14:50:44;5.43;;;2.60;;
9413;SDS011;4746;35.664;139.738;2023-03-01T14:53:20;5.70;;;2.67;;
9413;SDS011;4746;35.664;139.738;2023-03-01T14:55:53;5.30;;;2.60;;
9413;SDS011;4746;35.664;139.738;2023-03-01T14:58:31;9.90;;;2.93;;
9413;SDS011;4746;35.664;139.738;2023-03-01T15:01:05;4.00;;;2.63;;
9413;SDS011;4746;35.664;139.738;2023-03-01T15:03:35;2.90;;;2.53;;
9413;SDS011;4746;35.664;139.738;2023-03-01T15:06:09;3.80;;;2.47;;
9413;SDS011;4746;35.664;139.738;2023-03-01T15:08:47;7.27;;;2.73;;
9413;SDS011;4746;35.664;139.738;2023-03-01T15:11:24;2.80;;;2.20;;
9413;SDS011;4746;35.664;139.738;2023-03-01T15:14:05;5.20;;;1.83;;
9413;SDS011;4746;35.664;139.738;2023-03-01T15:20:13;3.73;;;2.47;;
9413;SDS011;4746;35.664;139.738;2023-03-01T15:22:48;3.40;;;1.97;;
9413;SDS011;4746;35.664;139.738;2023-03-01T15:25:19;2.37;;;2.27;;
9413;SDS011;4746;35.664;139.738;2023-03-01T15:27:54;2.80;;;1.90;;
9413;SDS011;4746;35.664;139.738;2023-03-01T15:30:29;3.83;;;2.07;;
9413;SDS011;4746;35.664;139.738;2023-03-01T15:33:51;2.67;;;2.00;;
9413;SDS011;4746;35.664;139.738;2023-03-01T15:39:35;4.17;;;2.33;;
9413;SDS011;4746;35.664;139.738;2023-03-01T15:42:09;2.20;;;1.93;;
9413;SDS011;4746;35.664;139.738;2023-03-01T15:47:49;4.37;;;2.10;;
9413;SDS011;4746;35.664;139.738;2023-03-01T15:50:25;3.63;;;2.30;;
9413;SDS011;4746;35.664;139.738;2023-03-01T15:53:04;2.33;;;1.90;;
9413;SDS011;4746;35.664;139.738;2023-03-01T15:55:41;3.60;;;2.20;;
9413;SDS011;4746;35.664;139.738;2023-03-01T15:58:21;3.80;;;2.33;;
9413;SDS011;4746;35.664;139.738;2023-03-01T16:00:51;3.20;;;2.00;;
9413;SDS011;4746;35.664;139.738;2023-03-01T16:03:22;4.00;;;1.77;;
9413;SDS011;4746;35.664;139.738;2023-03-01T16:05:50;2.60;;;2.07;;
9413;SDS011;4746;35.664;139.738;2023-03-01T16:08:18;4.60;;;1.90;;
9413;SDS011;4746;35.664;139.738;2023-03-01T16:10:46;2.20;;;1.67;;
9413;SDS011;4746;35.664;139.738;2023-03-01T16:13:19;3.47;;;1.70;;
9413;SDS011;4746;35.664;139.738;2023-03-01T16:15:47;5.47;;;2.00;;
9413;SDS011;4746;35.664;139.738;2023-03-01T16:18:15;3.97;;;2.00;;
9413;SDS011;4746;35.664;139.738;2023-03-01T16:20:42;3.17;;;1.83;;
9413;SDS011;4746;35.664;139.738;2023-03-01T16:23:13;2.33;;;2.13;;
9413;SDS011;4746;35.664;139.738;2023-03-01T16:25:41;4.40;;;2.40;;
9413;SDS011;4746;35.664;139.738;2023-03-01T16:28:09;3.60;;;2.00;;
9413;SDS011;4746;35.664;139.738;2023-03-01T16:30:50;3.17;;;2.07;;
9413;SDS011;4746;35.664;139.738;2023-03-01T16:33:31;2.07;;;1.87;;
9413;SDS011;4746;35.664;139.738;2023-03-01T16:36:10;2.97;;;2.00;;
9413;SDS011;4746;35.664;139.738;2023-03-01T16:38:43;1.97;;;1.73;;
9413;SDS011;4746;35.664;139.738;2023-03-01T16:41:19;2.33;;;1.60;;
9413;SDS011;4746;35.664;139.738;2023-03-01T16:43:51;2.90;;;1.80;;
9413;SDS011;4746;35.664;139.738;2023-03-01T16:46:22;3.60;;;1.87;;
9413;SDS011;4746;35.664;139.738;2023-03-01T16:49:07;4.47;;;2.13;;
9413;SDS011;4746;35.664;139.738;2023-03-01T16:51:40;2.43;;;2.23;;
9413;SDS011;4746;35.664;139.738;2023-03-01T16:54:11;4.50;;;1.80;;
9413;SDS011;4746;35.664;139.738;2023-03-01T16:56:38;4.33;;;2.20;;
9413;SDS011;4746;35.664;139.738;2023-03-01T16:59:06;3.17;;;1.90;;
9413;SDS011;4746;35.664;139.738;2023-03-01T17:01:36;6.07;;;2.00;;
9413;SDS011;4746;35.664;139.738;2023-03-01T17:04:08;2.63;;;2.17;;
9413;SDS011;4746;35.664;139.738;2023-03-01T17:06:38;4.67;;;2.23;;
9413;SDS011;4746;35.664;139.738;2023-03-01T17:09:06;6.33;;;2.30;;
9413;SDS011;4746;35.664;139.738;2023-03-01T17:11:35;2.10;;;1.60;;
9413;SDS011;4746;35.664;139.738;2023-03-01T17:14:02;3.60;;;2.27;;
9413;SDS011;4746;35.664;139.738;2023-03-01T17:16:32;2.77;;;2.20;;
9413;SDS011;4746;35.664;139.738;2023-03-01T17:19:00;5.70;;;2.40;;